Time;durP1;ratioP1;P1;durP2;ratioP2;P2;SDS_P1;SDS_P2;PMS_P1;PMS_P2;Temp;Humidity;BMP_temperature;BMP_pressure;BME280_temperature;BME280_humidity;BME280_pressure;Samples;Min_cycle;Max_cycle;Signal;HPM_P1;HPM_P2
2023/03/06 00:01:47;;;;;;;11.20;5.60;;;5.40;99.90;;;;;;5030393;28;20281;-58
2023/03/06 00:04:15;;;;;;;9.20;5.97;;;5.30;99.90;;;;;;5030013;28;20170;-58
2023/03/06 00:06:41;;;;;;;8.57;5.90;;;5.30;99.90;;;;;;5030897;28;20197;-58
2023/03/06 00:09:08;;;;;;;11.90;5.40;;;5.30;99.90;;;;;;5029489;28;20550;-58
2023/03/06 00:11:34;;;;;;;12.30;6.37;;;5.40;99.90;;;;;;5030236;28;20582;-58
2023/03/06 00:13:59;;;;;;;11.40;5.87;;;5.50;99.90;;;;;;5030227;28;20235;-58
2023/03/06 00:16:25;;;;;;;12.47;6.33;;;5.50;99.90;;;;;;5024003;28;20170;-58
2023/03/06 00:18:51;;;;;;;11.40;6.60;;;5.50;99.90;;;;;;5028972;28;20170;-59
2023/03/06 00:21:17;;;;;;;14.33;6.70;;;5.50;99.90;;;;;;5012562;28;20189;-59
2023/03/06 00:23:42;;;;;;;15.97;7.07;;;5.50;99.90;;;;;;5012240;28;20231;-58
2023/03/06 00:26:09;;;;;;;11.80;5.83;;;5.60;99.90;;;;;;5011969;28;20174;-58
2023/03/06 00:28:35;;;;;;;11.30;6.53;;;5.60;99.90;;;;;;5017256;28;20691;-58
2023/03/06 00:31:02;;;;;;;12.00;6.60;;;5.60;99.90;;;;;;5009537;28;20225;-59
2023/03/06 00:33:27;;;;;;;10.40;6.40;;;5.70;99.90;;;;;;5030347;28;20265;-59
2023/03/06 00:35:53;;;;;;;10.17;6.20;;;5.50;99.90;;;;;;5029364;28;20276;-59
2023/03/06 00:38:19;;;;;;;13.37;6.70;;;5.70;99.90;;;;;;5029328;28;20186;-59
2023/03/06 00:40:44;;;;;;;11.60;6.33;;;5.70;99.90;;;;;;5011993;28;20205;-58
2023/03/06 00:43:11;;;;;;;10.03;5.90;;;5.70;99.90;;;;;;5029907;28;20621;-57
2023/03/06 00:45:36;;;;;;;10.40;5.70;;;5.60;99.90;;;;;;5012428;28;20185;-59
2023/03/06 00:48:02;;;;;;;11.03;6.47;;;5.70;99.90;;;;;;5029870;28;20215;-57
2023/03/06 00:50:28;;;;;;;10.23;6.07;;;5.80;99.90;;;;;;5028189;28;20210;-57
2023/03/06 00:52:54;;;;;;;12.33;6.10;;;5.80;99.90;;;;;;5029814;28;20735;-57
2023/03/06 00:55:19;;;;;;;9.40;5.77;;;5.80;99.90;;;;;;5029304;28;20553;-58
2023/03/06 00:57:45;;;;;;;12.17;6.37;;;5.80;99.90;;;;;;5029238;28;20178;-58
2023/03/06 01:00:12;;;;;;;15.90;5.80;;;5.80;99.90;;;;;;5029406;28;20276;-58
2023/03/06 01:02:38;;;;;;;12.83;6.03;;;5.80;99.90;;;;;;5028077;28;20181;-58
2023/03/06 01:05:04;;;;;;;13.47;5.60;;;5.80;99.90;;;;;;5029132;28;20208;-58
2023/03/06 01:07:32;;;;;;;12.93;6.13;;;5.90;99.90;;;;;;5029106;28;20228;-58
2023/03/06 01:09:58;;;;;;;12.33;6.30;;;5.80;99.90;;;;;;5028630;28;20213;-58
2023/03/06 01:12:24;;;;;;;10.70;5.47;;;5.90;99.90;;;;;;5022577;28;20267;-57
2023/03/06 01:14:50;;;;;;;12.47;5.90;;;5.90;99.90;;;;;;5028881;28;20196;-58
2023/03/06 01:17:16;;;;;;;11.47;6.33;;;5.90;99.90;;;;;;5042520;28;20188;-57
2023/03/06 01:19:42;;;;;;;11.20;6.33;;;5.80;99.90;;;;;;5029493;28;20189;-57
2023/03/06 01:22:07;;;;;;;11.33;6.27;;;5.40;99.90;;;;;;5018443;28;20169;-59
2023/03/06 01:24:33;;;;;;;11.40;5.73;;;5.90;99.90;;;;;;5028387;28;20178;-58
2023/03/06 01:26:58;;;;;;;13.30;6.70;;;6.00;99.90;;;;;;5029525;28;20542;-59
2023/03/06 01:29:25;;;;;;;15.10;7.00;;;5.90;99.90;;;;;;5028805;28;20206;-58
2023/03/06 01:31:51;;;;;;;16.77;6.93;;;6.00;99.90;;;;;;5011338;28;20276;-58
2023/03/06 01:34:17;;;;;;;11.50;7.03;;;6.00;99.90;;;;;;5028714;28;20309;-58
2023/03/06 01:36:42;;;;;;;11.93;6.87;;;5.90;99.90;;;;;;5028508;28;20208;-57
2023/03/06 01:39:08;;;;;;;11.43;7.10;;;6.00;99.90;;;;;;5028604;28;20562;-58
2023/03/06 01:41:34;;;;;;;10.37;6.53;;;6.00;99.90;;;;;;5029477;28;20232;-57
2023/03/06 01:43:59;;;;;;;12.43;6.40;;;6.00;99.90;;;;;;5029329;28;20706;-58
2023/03/06 01:46:31;;;;;;;10.87;6.60;;;6.00;99.90;;;;;;5028617;28;20616;-57
2023/03/06 01:49:01;;;;;;;11.83;6.70;;;6.00;99.90;;;;;;5028856;28;20532;-57
2023/03/06 01:51:33;;;;;;;12.20;6.80;;;6.00;99.90;;;;;;5029669;28;20217;-58
2023/03/06 01:54:03;;;;;;;10.87;6.77;;;6.00;99.90;;;;;;5028676;28;20265;-58
2023/03/06 01:56:28;;;;;;;10.03;6.73;;;6.00;99.90;;;;;;5029401;28;20193;-58
2023/03/06 01:58:55;;;;;;;13.40;6.87;;;5.90;99.90;;;;;;5025831;28;20225;-57
2023/03/06 02:01:20;;;;;;;10.20;6.53;;;5.90;99.90;;;;;;5028303;28;20236;-58
2023/03/06 02:03:48;;;;;;;12.57;6.93;;;5.90;99.90;;;;;;5032619;28;20592;-57
2023/03/06 02:06:18;;;;;;;11.17;6.30;;;5.90;99.90;;;;;;5030197;28;20272;-57
2023/03/06 02:08:48;;;;;;;13.27;6.43;;;5.90;99.90;;;;;;5028042;28;20193;-57
2023/03/06 02:11:17;;;;;;;10.47;6.23;;;5.90;99.90;;;;;;5031864;28;20208;-58
2023/03/06 02:13:44;;;;;;;9.83;6.30;;;5.90;99.90;;;;;;5032442;28;20181;-57
2023/03/06 02:16:12;;;;;;;12.60;6.63;;;6.00;99.90;;;;;;5032951;28;20174;-57
2023/03/06 02:18:39;;;;;;;9.47;6.07;;;6.00;99.90;;;;;;5031943;28;20253;-58
2023/03/06 02:21:11;;;;;;;10.30;6.77;;;6.00;99.90;;;;;;5014460;28;20632;-57
2023/03/06 02:24:07;;;;;;;13.27;6.70;;;5.90;99.90;;;;;;5031697;28;20186;-57
2023/03/06 02:26:35;;;;;;;12.03;6.53;;;6.00;99.90;;;;;;5014577;28;20640;-57
2023/03/06 02:29:01;;;;;;;13.87;6.57;;;6.10;99.90;;;;;;5032653;28;20261;-57
2023/03/06 02:31:30;;;;;;;8.80;6.17;;;6.00;99.90;;;;;;5032965;28;20678;-57
2023/03/06 02:34:28;;;;;;;11.17;6.97;;;6.10;99.90;;;;;;5032852;28;20197;-57
2023/03/06 02:37:04;;;;;;;11.77;6.50;;;6.00;99.90;;;;;;5031864;28;20162;-57
2023/03/06 02:39:32;;;;;;;11.10;6.10;;;6.00;99.90;;;;;;5032510;28;20337;-57
2023/03/06 02:41:58;;;;;;;11.80;6.63;;;6.00;99.90;;;;;;5031891;28;20190;-57
2023/03/06 02:44:26;;;;;;;10.50;5.90;;;6.00;99.90;;;;;;5031981;28;20182;-57
2023/03/06 02:46:52;;;;;;;11.23;5.93;;;6.00;99.90;;;;;;5032946;28;20268;-57
2023/03/06 02:49:17;;;;;;;14.33;5.90;;;6.00;99.90;;;;;;5010793;28;20718;-57
2023/03/06 02:51:43;;;;;;;8.87;5.90;;;6.10;99.90;;;;;;5014667;28;20257;-57
2023/03/06 02:54:09;;;;;;;9.80;5.47;;;6.00;99.90;;;;;;5032608;28;20189;-57
2023/03/06 02:56:35;;;;;;;11.10;5.43;;;6.00;99.90;;;;;;5032354;28;20178;-57
2023/03/06 02:59:01;;;;;;;9.00;5.13;;;5.90;99.90;;;;;;5031836;28;20221;-58
2023/03/06 03:01:26;;;;;;;7.63;5.20;;;5.90;99.90;;;;;;5013577;28;20182;-57
2023/03/06 03:03:52;;;;;;;9.33;5.37;;;6.00;99.90;;;;;;5026270;28;20201;-57
2023/03/06 03:09:06;;;;;;;8.73;4.87;;;6.00;99.90;;;;;;4654784;22;20304;-59
2023/03/06 03:11:31;;;;;;;8.37;5.17;;;5.70;99.90;;;;;;5035815;28;20283;-59
2023/03/06 03:13:57;;;;;;;12.87;6.30;;;6.00;99.90;;;;;;5043020;28;20189;-59
2023/03/06 03:16:23;;;;;;;11.77;5.93;;;6.00;99.90;;;;;;5050744;28;20662;-59
2023/03/06 03:18:49;;;;;;;12.90;6.50;;;6.00;99.90;;;;;;5043908;28;20177;-59
2023/03/06 03:21:16;;;;;;;12.30;5.90;;;6.10;99.90;;;;;;5047400;28;20242;-58
2023/03/06 03:23:41;;;;;;;9.93;6.30;;;6.30;99.90;;;;;;5051372;28;20513;-61
2023/03/06 03:26:13;;;;;;;12.03;6.30;;;5.90;99.90;;;;;;5051263;28;20191;-59
2023/03/06 03:28:39;;;;;;;10.23;6.17;;;6.10;99.90;;;;;;5037181;28;20196;-59
2023/03/06 03:31:06;;;;;;;11.57;6.83;;;5.80;99.90;;;;;;5048236;28;20682;-60
2023/03/06 03:33:32;;;;;;;12.90;6.53;;;6.10;99.90;;;;;;5051355;28;20192;-59
2023/03/06 03:35:59;;;;;;;13.30;6.73;;;6.10;99.90;;;;;;5051256;28;20252;-59
2023/03/06 03:38:25;;;;;;;14.03;6.43;;;6.10;99.90;;;;;;5050913;28;20177;-59
2023/03/06 03:40:50;;;;;;;10.70;6.30;;;6.10;99.90;;;;;;5050682;28;20189;-59
2023/03/06 03:43:16;;;;;;;10.80;6.03;;;6.10;99.90;;;;;;5050297;28;20177;-60
2023/03/06 03:45:42;;;;;;;14.67;6.87;;;6.10;99.90;;;;;;5016029;28;20174;-59
2023/03/06 03:48:07;;;;;;;13.70;7.10;;;6.10;99.90;;;;;;5050195;28;20184;-59
2023/03/06 03:50:33;;;;;;;15.50;6.80;;;6.00;99.90;;;;;;5050895;28;20215;-60
2023/03/06 03:52:59;;;;;;;21.60;7.07;;;6.10;99.90;;;;;;5051205;28;20705;-61
2023/03/06 03:55:24;;;;;;;11.27;6.63;;;6.10;99.90;;;;;;5025348;28;20178;-61
2023/03/06 03:57:50;;;;;;;12.13;6.93;;;6.00;99.90;;;;;;5029049;28;20675;-61
2023/03/06 04:00:16;;;;;;;11.93;6.50;;;6.10;99.90;;;;;;5050558;28;20181;-59
2023/03/06 04:02:45;;;;;;;12.70;7.47;;;6.10;99.90;;;;;;5049419;28;20177;-59
2023/03/06 04:05:13;;;;;;;13.73;7.07;;;6.10;99.90;;;;;;5032979;28;20477;-61
2023/03/06 04:07:39;;;;;;;17.33;7.20;;;6.10;99.90;;;;;;5051296;28;20677;-61
2023/03/06 04:10:07;;;;;;;14.17;7.43;;;6.10;99.90;;;;;;5050768;28;20732;-61
2023/03/06 04:12:33;;;;;;;12.10;6.30;;;;;;;;;;5031220;28;20198;-61
2023/03/06 04:14:59;;;;;;;12.20;6.73;;;6.00;99.90;;;;;;5012934;28;20177;-60
2023/03/06 04:17:25;;;;;;;10.37;6.10;;;6.10;99.90;;;;;;5030874;28;20185;-60
2023/03/06 04:19:50;;;;;;;15.07;6.50;;;6.10;99.90;;;;;;5031581;28;20182;-59
2023/03/06 04:22:16;;;;;;;14.97;6.20;;;6.10;99.90;;;;;;5012739;28;20239;-60
2023/03/06 04:24:41;;;;;;;14.60;6.57;;;6.10;99.90;;;;;;5037524;28;20185;-58
2023/03/06 04:27:07;;;;;;;11.43;6.00;;;6.10;99.90;;;;;;5050042;28;20173;-58
2023/03/06 04:29:33;;;;;;;9.70;5.40;;;5.90;99.90;;;;;;5049972;28;20207;-60
2023/03/06 04:31:58;;;;;;;9.10;5.50;;;6.10;99.90;;;;;;5050583;28;20176;-59
2023/03/06 04:34:24;;;;;;;18.00;6.07;;;6.10;99.90;;;;;;5034303;28;20186;-61
2023/03/06 04:36:49;;;;;;;13.73;6.43;;;6.10;99.90;;;;;;5012889;28;20636;-62
2023/03/06 04:39:16;;;;;;;10.77;5.70;;;6.20;99.90;;;;;;5031393;28;20181;-60
2023/03/06 04:41:41;;;;;;;11.00;6.17;;;6.20;99.90;;;;;;5031193;28;20178;-60
2023/03/06 04:44:07;;;;;;;12.43;5.83;;;6.20;99.90;;;;;;5030128;28;20184;-60
2023/03/06 04:46:34;;;;;;;11.33;6.17;;;6.10;99.90;;;;;;5012295;28;20557;-62
2023/03/06 04:49:00;;;;;;;17.23;6.00;;;6.20;99.90;;;;;;5030591;28;20182;-62
2023/03/06 04:51:26;;;;;;;13.57;5.70;;;6.20;99.90;;;;;;5029997;28;20753;-62
2023/03/06 04:53:51;;;;;;;12.67;6.07;;;5.50;99.90;;;;;;5025434;28;20205;-62
2023/03/06 04:56:17;;;;;;;11.37;6.57;;;6.10;99.90;;;;;;5030607;28;20585;-59
2023/03/06 04:58:43;;;;;;;11.33;6.57;;;6.10;99.90;;;;;;5030664;28;20167;-62
2023/03/06 05:01:09;;;;;;;12.23;7.57;;;6.20;99.90;;;;;;5031133;28;20288;-62
2023/03/06 05:03:35;;;;;;;19.33;7.90;;;6.00;99.90;;;;;;5031000;28;20711;-61
2023/03/06 05:06:01;;;;;;;12.90;8.30;;;6.00;99.90;;;;;;5037553;28;20183;-62
2023/03/06 05:08:27;;;;;;;16.07;8.77;;;6.00;99.90;;;;;;5047887;28;20191;-62
2023/03/06 05:10:58;;;;;;;19.10;9.40;;;6.00;99.90;;;;;;5041688;28;20220;-62
2023/03/06 05:13:25;;;;;;;17.00;9.70;;;6.00;99.90;;;;;;5047499;28;20173;-62
2023/03/06 05:15:50;;;;;;;18.10;10.10;;;6.00;99.90;;;;;;5049178;28;20185;-62
2023/03/06 05:18:17;;;;;;;20.07;9.77;;;6.10;99.90;;;;;;5050313;28;20653;-62
2023/03/06 05:20:42;;;;;;;19.97;9.80;;;6.20;99.90;;;;;;5050018;28;20203;-62
2023/03/06 05:23:08;;;;;;;16.07;8.40;;;6.00;99.90;;;;;;5050026;28;20635;-62
2023/03/06 05:25:33;;;;;;;14.63;8.77;;;6.00;99.90;;;;;;5050498;28;20173;-62
2023/03/06 05:27:59;;;;;;;17.43;8.13;;;6.30;99.90;;;;;;5050748;28;20180;-62
2023/03/06 05:30:25;;;;;;;20.80;8.43;;;6.10;99.90;;;;;;5050110;28;20220;-62
2023/03/06 05:32:50;;;;;;;11.97;7.90;;;6.10;99.90;;;;;;5050213;28;20176;-62
2023/03/06 05:35:21;;;;;;;13.50;7.87;;;6.10;99.90;;;;;;5050622;28;20658;-62
2023/03/06 05:37:47;;;;;;;12.33;7.47;;;6.20;99.90;;;;;;5052953;28;20247;-61
2023/03/06 05:40:14;;;;;;;13.20;7.30;;;6.10;99.90;;;;;;5053875;28;20667;-61
2023/03/06 05:42:40;;;;;;;15.73;7.30;;;6.10;99.90;;;;;;5052620;28;20545;-61
2023/03/06 05:45:06;;;;;;;12.90;7.03;;;6.10;99.90;;;;;;5053502;28;20165;-61
2023/03/06 05:47:32;;;;;;;11.33;7.67;;;6.20;99.90;;;;;;5047116;28;20695;-61
2023/03/06 05:49:57;;;;;;;14.67;7.77;;;7.60;99.90;;;;;;5053218;28;20288;-59
2023/03/06 05:52:23;;;;;;;14.60;7.23;;;6.20;99.90;;;;;;5053825;28;20199;-60
2023/03/06 05:54:51;;;;;;;16.67;7.37;;;6.20;99.90;;;;;;5048790;28;20179;-59
2023/03/06 05:57:22;;;;;;;18.83;8.73;;;6.10;99.90;;;;;;5053304;28;20231;-59
2023/03/06 05:59:48;;;;;;;13.57;8.07;;;6.10;99.90;;;;;;5053571;28;20176;-59
2023/03/06 06:02:15;;;;;;;17.93;7.47;;;6.10;99.90;;;;;;5038987;28;20206;-59
2023/03/06 06:04:41;;;;;;;17.57;7.33;;;6.10;99.90;;;;;;5033184;28;20212;-59
2023/03/06 06:07:06;;;;;;;14.77;8.03;;;6.10;99.90;;;;;;5033633;28;20198;-59
2023/03/06 06:09:32;;;;;;;19.13;7.97;;;6.10;99.90;;;;;;5037187;28;20616;-59
2023/03/06 06:12:01;;;;;;;13.47;8.00;;;5.90;99.90;;;;;;5030527;28;20558;-59
2023/03/06 06:14:33;;;;;;;16.20;9.07;;;6.90;99.90;;;;;;5050472;28;20201;-59
2023/03/06 06:16:58;;;;;;;16.33;7.83;;;6.10;99.90;;;;;;5032729;28;20180;-59
2023/03/06 06:19:27;;;;;;;13.93;8.50;;;6.10;99.90;;;;;;5033730;28;20186;-59
2023/03/06 06:21:53;;;;;;;14.60;8.43;;;6.10;99.90;;;;;;5032576;28;20227;-59
2023/03/06 06:24:21;;;;;;;15.67;8.50;;;6.20;99.90;;;;;;5032649;28;20170;-59
2023/03/06 06:26:52;;;;;;;18.03;9.60;;;6.10;99.90;;;;;;5036917;28;20173;-59
2023/03/06 06:29:18;;;;;;;17.43;9.70;;;;;;;;;;5038580;28;20252;-61
2023/03/06 06:31:44;;;;;;;19.53;10.37;;;6.20;99.90;;;;;;5042635;28;20239;-59
2023/03/06 06:34:10;;;;;;;18.87;10.23;;;6.20;99.90;;;;;;5053399;28;20170;-59
2023/03/06 06:36:36;;;;;;;21.93;11.60;;;6.20;99.90;;;;;;5022659;28;20643;-59
2023/03/06 06:39:02;;;;;;;18.73;11.00;;;6.20;99.90;;;;;;5053371;28;20181;-59
2023/03/06 06:41:28;;;;;;;19.27;10.57;;;6.20;99.90;;;;;;5053202;28;20176;-59
2023/03/06 06:43:54;;;;;;;17.30;10.03;;;6.20;99.90;;;;;;5045687;28;20640;-61
2023/03/06 06:46:20;;;;;;;20.47;10.47;;;6.20;99.90;;;;;;5051619;28;20185;-59
2023/03/06 06:48:51;;;;;;;16.20;10.27;;;6.30;99.90;;;;;;5051034;28;20209;-59
2023/03/06 06:51:17;;;;;;;16.07;9.57;;;;;;;;;;5051034;28;20557;-58
2023/03/06 06:53:43;;;;;;;16.93;9.00;;;6.30;99.90;;;;;;5034392;28;20526;-61
2023/03/06 06:56:09;;;;;;;18.63;9.27;;;6.20;99.90;;;;;;5045612;28;20181;-61
2023/03/06 06:58:35;;;;;;;14.80;8.83;;;6.30;99.90;;;;;;5051676;28;20181;-62
2023/03/06 07:01:09;;;;;;;19.87;8.30;;;6.40;99.90;;;;;;5037259;28;20527;-62
2023/03/06 07:03:35;;;;;;;14.30;7.97;;;6.30;99.90;;;;;;5015394;28;20547;-62
2023/03/06 07:06:01;;;;;;;11.97;7.23;;;6.40;99.90;;;;;;5040579;28;20192;-61
2023/03/06 07:08:26;;;;;;;18.60;8.40;;;6.40;99.90;;;;;;5050372;28;20176;-62
2023/03/06 07:10:52;;;;;;;16.93;8.10;;;6.40;99.90;;;;;;5040375;28;20215;-61
2023/03/06 07:13:18;;;;;;;15.33;7.47;;;6.40;99.90;;;;;;5051954;28;20178;-61
2023/03/06 07:15:43;;;;;;;16.83;7.60;;;6.50;99.90;;;;;;5051787;28;20224;-61
2023/03/06 07:18:09;;;;;;;14.40;8.20;;;6.50;99.90;;;;;;5051226;28;20169;-62
2023/03/06 07:20:35;;;;;;;14.03;8.00;;;6.50;99.90;;;;;;5051758;28;20173;-62
2023/03/06 07:23:01;;;;;;;14.13;7.83;;;6.60;99.90;;;;;;5051226;28;20181;-63
2023/03/06 07:25:26;;;;;;;17.33;8.23;;;6.50;99.90;;;;;;5050764;28;20165;-62
2023/03/06 07:27:53;;;;;;;16.50;7.27;;;6.50;99.90;;;;;;5051045;28;20655;-62
2023/03/06 07:30:19;;;;;;;14.57;7.93;;;6.60;99.90;;;;;;5051223;28;20205;-59
2023/03/06 07:32:45;;;;;;;12.80;6.90;;;6.70;99.90;;;;;;5051543;28;20173;-59
2023/03/06 07:35:15;;;;;;;14.90;8.07;;;6.70;99.90;;;;;;5041553;28;20181;-59
2023/03/06 07:37:41;;;;;;;13.03;7.33;;;6.70;99.90;;;;;;5046254;28;20268;-59
2023/03/06 07:40:08;;;;;;;13.90;8.13;;;6.80;99.90;;;;;;5047794;28;20726;-60
2023/03/06 07:42:34;;;;;;;13.70;8.30;;;6.90;99.90;;;;;;5031816;28;20178;-60
2023/03/06 07:45:00;;;;;;;22.57;8.77;;;7.00;99.90;;;;;;5050882;28;20683;-60
2023/03/06 07:47:26;;;;;;;15.60;7.80;;;7.10;99.90;;;;;;5033869;28;20568;-60
2023/03/06 07:50:01;;;;;;;22.03;8.17;;;6.70;99.90;;;;;;5046485;28;20209;-62
2023/03/06 07:52:28;;;;;;;11.67;7.97;;;7.10;99.90;;;;;;5048599;28;20230;-61
2023/03/06 07:54:53;;;;;;;19.27;7.73;;;7.10;99.90;;;;;;5021618;28;20269;-61
2023/03/06 07:57:19;;;;;;;14.93;7.93;;;7.20;99.90;;;;;;5047793;28;20272;-61
2023/03/06 07:59:44;;;;;;;12.07;7.43;;;7.20;99.90;;;;;;5051741;28;20213;-61
2023/03/06 08:02:11;;;;;;;13.73;7.77;;;7.20;99.90;;;;;;5050938;28;20165;-61
2023/03/06 08:04:37;;;;;;;17.17;8.10;;;7.30;99.90;;;;;;5052157;28;20227;-61
2023/03/06 08:07:02;;;;;;;13.93;7.70;;;7.30;99.90;;;;;;5051685;28;20170;-61
2023/03/06 08:09:29;;;;;;;14.73;7.40;;;7.30;99.90;;;;;;5049283;28;20259;-61
2023/03/06 08:11:55;;;;;;;16.20;7.73;;;7.60;99.90;;;;;;5043272;28;20181;-61
2023/03/06 08:14:21;;;;;;;12.47;7.30;;;7.50;99.90;;;;;;5030097;28;20231;-61
2023/03/06 08:16:49;;;;;;;11.80;6.63;;;7.70;99.90;;;;;;5043316;28;20185;-61
2023/03/06 08:19:15;;;;;;;11.17;6.70;;;7.60;99.90;;;;;;5051084;28;20689;-59
2023/03/06 08:21:40;;;;;;;13.80;7.40;;;7.70;99.90;;;;;;5051490;28;20173;-60
2023/03/06 08:24:06;;;;;;;12.43;6.57;;;7.70;99.90;;;;;;5050306;28;20226;-60
2023/03/06 08:26:32;;;;;;;14.63;6.73;;;7.80;99.90;;;;;;5050438;28;20166;-60
2023/03/06 08:28:59;;;;;;;9.80;6.50;;;7.80;99.90;;;;;;5051047;28;20174;-62
2023/03/06 08:31:36;;;;;;;13.47;6.10;;;7.80;99.90;;;;;;5050107;28;20209;-60
2023/03/06 08:34:04;;;;;;;15.00;6.70;;;7.90;99.90;;;;;;5043480;28;20221;-60
2023/03/06 08:36:30;;;;;;;10.20;6.30;;;7.90;99.90;;;;;;5049909;28;20377;-60
2023/03/06 08:38:56;;;;;;;10.77;5.93;;;7.90;99.90;;;;;;5050785;28;20177;-61
2023/03/06 08:41:22;;;;;;;13.87;6.57;;;7.80;99.90;;;;;;5050486;28;20181;-60
2023/03/06 08:43:49;;;;;;;18.10;6.00;;;8.00;99.90;;;;;;5050285;28;20527;-60
2023/03/06 08:46:14;;;;;;;10.63;6.07;;;8.00;99.90;;;;;;5049712;28;20260;-60
2023/03/06 08:48:40;;;;;;;16.20;6.90;;;8.10;99.90;;;;;;5049895;28;20295;-60
2023/03/06 08:51:10;;;;;;;9.13;6.30;;;8.40;99.90;;;;;;5050305;28;20394;-59
2023/03/06 08:53:36;;;;;;;11.43;7.40;;;8.70;99.90;;;;;;5050397;28;20169;-60
2023/03/06 08:56:02;;;;;;;18.73;7.80;;;10.40;99.90;;;;;;5045828;28;20177;-60
2023/03/06 08:58:29;;;;;;;14.43;8.03;;;8.90;99.90;;;;;;5034473;28;20182;-60
2023/03/06 09:00:55;;;;;;;13.00;7.90;;;9.00;99.90;;;;;;5030850;28;20165;-59
2023/03/06 09:03:22;;;;;;;12.73;7.60;;;9.50;99.90;;;;;;5048862;28;20215;-60
2023/03/06 09:05:48;;;;;;;15.53;7.23;;;10.00;99.90;;;;;;5050721;28;20165;-60
2023/03/06 09:08:14;;;;;;;13.10;6.30;;;10.70;99.90;;;;;;5049778;28;20653;-61
2023/03/06 09:10:44;;;;;;;12.07;5.67;;;10.90;99.90;;;;;;5048046;28;20246;-61
2023/03/06 09:13:09;;;;;;;11.03;5.50;;;10.60;99.90;;;;;;5048612;28;20223;-61
2023/03/06 09:15:35;;;;;;;8.57;4.90;;;10.50;99.90;;;;;;5047970;28;20718;-61
2023/03/06 09:18:01;;;;;;;7.70;4.53;;;10.80;99.90;;;;;;5038089;28;20181;-60
2023/03/06 09:20:26;;;;;;;8.83;4.43;;;11.00;99.90;;;;;;5030039;28;20233;-63
2023/03/06 09:22:52;;;;;;;7.23;4.07;;;10.80;99.90;;;;;;5029710;28;20181;-62
2023/03/06 09:25:19;;;;;;;9.90;3.83;;;10.80;99.90;;;;;;5033549;28;20181;-60
2023/03/06 09:27:46;;;;;;;10.33;3.87;;;10.90;99.90;;;;;;5045477;28;20165;-60
2023/03/06 09:30:13;;;;;;;7.97;3.00;;;10.80;99.90;;;;;;5049013;28;20244;-60
2023/03/06 09:32:39;;;;;;;5.37;3.00;;;;;;;;;;5049246;28;20234;-60
2023/03/06 09:35:05;;;;;;;8.27;3.33;;;10.80;99.90;;;;;;5049730;28;20169;-60
2023/03/06 09:37:30;;;;;;;5.83;2.93;;;11.70;99.90;;;;;;5034970;28;20177;-60
2023/03/06 09:39:56;;;;;;;17.17;3.37;;;13.10;99.90;;;;;;5041833;28;20188;-60
2023/03/06 09:42:22;;;;;;;9.00;3.60;;;12.30;99.90;;;;;;5048768;28;20174;-61
2023/03/06 09:44:55;;;;;;;7.73;2.80;;;12.30;99.90;;;;;;5048851;28;20306;-60
2023/03/06 09:47:40;;;;;;;8.20;3.17;;;12.40;99.90;;;;;;5049089;28;20174;-61
2023/03/06 09:50:30;;;;;;;8.90;3.10;;;12.30;99.90;;;;;;5046758;28;20229;-60
2023/03/06 09:53:31;;;;;;;6.37;3.20;;;12.20;99.90;;;;;;5050200;28;20243;-61
2023/03/06 09:56:04;;;;;;;8.23;2.70;;;12.10;99.90;;;;;;5024654;28;20211;-60
2023/03/06 09:58:36;;;;;;;6.40;3.17;;;13.10;99.90;;;;;;5050063;28;20240;-60
2023/03/06 10:01:25;;;;;;;6.53;2.83;;;13.10;99.90;;;;;;5049318;28;20162;-61
2023/03/06 10:04:18;;;;;;;7.03;2.77;;;12.80;99.90;;;;;;5045479;28;20173;-61
2023/03/06 10:06:50;;;;;;;9.03;3.10;;;12.20;99.90;;;;;;5048514;28;20201;-61
2023/03/06 10:09:21;;;;;;;9.05;3.05;;;13.80;99.90;;;;;;5048504;28;20279;-60
2023/03/06 10:11:46;;;;;;;7.47;2.22;;;14.10;99.90;;;;;;5047572;28;20217;-61
2023/03/06 10:14:57;;;;;;;9.55;2.75;;;14.50;99.90;;;;;;5048184;28;20176;-61
2023/03/06 10:17:25;;;;;;;8.07;2.03;;;15.90;99.90;;;;;;5043232;28;20220;-61
2023/03/06 10:19:51;;;;;;;4.97;1.90;;;14.50;99.90;;;;;;5047756;28;20311;-61
2023/03/06 10:22:28;;;;;;;4.28;1.50;;;14.50;99.90;;;;;;5043644;28;20662;-63
2023/03/06 10:25:17;;;;;;;6.22;1.52;;;15.00;99.90;;;;;;5050016;28;20667;-61
2023/03/06 10:28:09;;;;;;;2.75;1.15;;;14.90;99.90;;;;;;5033484;28;20185;-61
2023/03/06 10:30:44;;;;;;;4.95;1.63;;;15.30;99.90;;;;;;5040890;28;20240;-61
2023/03/06 10:33:24;;;;;;;7.80;1.67;;;14.50;99.90;;;;;;5050883;28;20235;-61
2023/03/06 10:35:53;;;;;;;3.00;1.42;;;14.40;99.90;;;;;;5039555;28;20177;-61
2023/03/06 10:38:26;;;;;;;6.82;2.03;;;14.30;99.90;;;;;;5033081;28;20265;-61
2023/03/06 10:41:10;;;;;;;3.17;1.27;;;14.00;99.90;;;;;;5052871;28;20253;-61
2023/03/06 10:43:40;;;;;;;5.57;1.60;;;14.40;99.90;;;;;;5053297;28;20192;-61
2023/03/06 10:46:07;;;;;;;4.55;1.02;;;14.60;99.90;;;;;;5053172;28;20169;-61
2023/03/06 10:48:35;;;;;;;3.80;2.08;;;14.50;99.90;;;;;;5053146;28;20177;-61
2023/03/06 10:51:10;;;;;;;4.85;1.92;;;13.60;99.90;;;;;;5052814;28;20255;-60
2023/03/06 10:53:46;;;;;;;3.70;1.80;;;13.00;99.90;;;;;;5053598;28;20324;-60
2023/03/06 10:56:29;;;;;;;3.77;2.40;;;12.30;99.90;;;;;;5053246;28;20219;-60
2023/03/06 10:59:24;;;;;;;7.93;3.10;;;11.70;99.90;;;;;;5053120;28;20180;-60
2023/03/06 11:01:50;;;;;;;7.90;3.80;;;12.60;99.90;;;;;;5052984;28;20259;-60
2023/03/06 11:04:27;;;;;;;5.60;3.90;;;12.70;99.90;;;;;;5052983;28;20248;-60
2023/03/06 11:07:14;;;;;;;9.63;4.53;;;13.10;99.90;;;;;;5053260;28;20525;-60
2023/03/06 11:09:42;;;;;;;7.77;3.33;;;12.50;99.90;;;;;;5052729;28;20251;-60
2023/03/06 11:12:26;;;;;;;4.73;2.13;;;13.00;99.90;;;;;;5052791;28;20597;-60
2023/03/06 11:15:21;;;;;;;8.87;2.20;;;12.80;99.90;;;;;;5052804;28;20679;-60
2023/03/06 11:18:24;;;;;;;5.90;2.00;;;12.50;99.90;;;;;;5053071;28;20271;-60
2023/03/06 11:20:53;;;;;;;4.23;1.60;;;11.80;99.90;;;;;;5052829;28;20192;-60
2023/03/06 11:23:36;;;;;;;7.67;1.90;;;12.80;99.90;;;;;;5052658;28;20769;-60
2023/03/06 11:26:14;;;;;;;8.80;1.60;;;14.00;99.90;;;;;;5036665;28;20186;-60
2023/03/06 11:29:03;;;;;;;3.90;1.45;;;13.50;99.90;;;;;;5031937;28;20223;-60
2023/03/06 11:31:33;;;;;;;9.13;1.47;;;12.60;99.90;;;;;;5032116;28;20213;-60
2023/03/06 11:34:11;;;;;;;4.87;1.47;;;11.70;99.90;;;;;;5031494;28;20189;-60
2023/03/06 11:36:39;;;;;;;4.03;1.20;;;10.70;99.90;;;;;;5032497;28;20174;-60
2023/03/06 11:39:40;;;;;;;7.17;0.93;;;12.80;99.90;;;;;;5031434;28;20251;-60
2023/03/06 11:42:25;;;;;;;8.53;0.97;;;13.20;99.90;;;;;;5032443;28;20181;-60
2023/03/06 11:45:09;;;;;;;4.60;0.80;;;15.70;99.90;;;;;;5032340;28;20177;-60
2023/03/06 11:47:59;;;;;;;3.40;0.70;;;14.50;99.90;;;;;;5030204;28;20567;-60
2023/03/06 11:50:49;;;;;;;3.88;0.57;;;12.60;99.90;;;;;;5019670;28;20218;-60
2023/03/06 11:53:28;;;;;;;5.40;0.63;;;11.60;99.90;;;;;;5022772;28;20193;-60
2023/03/06 11:56:08;;;;;;;7.60;0.80;;;11.60;99.90;;;;;;5029989;28;20259;-60
2023/03/06 11:58:59;;;;;;;10.43;1.20;;;11.60;99.90;;;;;;5030444;28;20188;-60
2023/03/06 12:01:48;;;;;;;3.80;1.10;;;11.60;99.90;;;;;;5031996;28;20166;-60
2023/03/06 12:04:41;;;;;;;4.37;1.30;;;11.70;99.90;;;;;;5032149;28;20186;-60
2023/03/06 12:07:25;;;;;;;3.83;0.70;;;11.50;99.90;;;;;;5031924;28;20166;-60
2023/03/06 12:10:13;;;;;;;2.33;0.30;;;10.90;99.90;;;;;;5031630;28;20300;-60
2023/03/06 12:13:10;;;;;;;3.03;0.80;;;10.40;99.90;;;;;;5020986;28;20617;-60
2023/03/06 12:16:01;;;;;;;5.47;0.87;;;10.70;99.90;;;;;;5032006;28;20201;-60
2023/03/06 12:18:34;;;;;;;3.77;0.80;;;10.80;99.90;;;;;;5023401;28;20193;-60
2023/03/06 12:21:03;;;;;;;1.37;0.40;;;10.50;99.90;;;;;;5031702;28;20178;-60
2023/03/06 12:23:34;;;;;;;2.40;0.57;;;10.90;99.90;;;;;;5036701;28;20182;-60
2023/03/06 12:26:12;;;;;;;5.43;0.80;;;10.60;99.90;;;;;;5029330;28;20284;-60
2023/03/06 12:28:52;;;;;;;4.70;0.50;;;11.70;99.90;;;;;;5030111;28;20181;-60
2023/03/06 12:31:33;;;;;;;2.03;0.70;;;11.50;99.90;;;;;;5029304;28;20212;-61
2023/03/06 12:34:37;;;;;;;5.13;1.03;;;12.10;99.90;;;;;;5036638;28;20173;-60
2023/03/06 12:37:11;;;;;;;6.03;1.20;;;11.90;99.90;;;;;;5046665;28;20185;-60
2023/03/06 12:40:15;;;;;;;7.73;1.13;;;11.40;99.90;;;;;;5050438;28;20173;-60
2023/03/06 12:42:55;;;;;;;6.60;1.00;;;11.10;99.90;;;;;;4968457;28;20266;-60
2023/03/06 12:45:31;;;;;;;7.17;1.00;;;10.60;99.90;;;;;;5039151;28;20726;-60
2023/03/06 12:47:57;;;;;;;2.37;0.60;;;10.50;99.90;;;;;;5049543;28;20176;-60
2023/03/06 12:50:32;;;;;;;4.50;1.07;;;10.40;99.90;;;;;;5050271;28;20275;-60
2023/03/06 12:53:01;;;;;;;5.70;0.83;;;10.10;99.90;;;;;;5047382;28;20172;-60
2023/03/06 12:55:36;;;;;;;4.17;0.73;;;9.80;99.90;;;;;;5050844;28;20678;-60
2023/03/06 12:58:26;;;;;;;2.37;0.80;;;9.60;99.90;;;;;;5044767;28;20176;-60
2023/03/06 13:00:57;;;;;;;9.57;1.10;;;9.00;99.90;;;;;;5049530;28;20173;-60
2023/03/06 13:03:46;;;;;;;5.57;0.83;;;9.20;99.90;;;;;;5049052;28;20173;-60
2023/03/06 13:06:39;;;;;;;4.00;1.03;;;8.90;99.90;;;;;;5050959;28;20185;-60